Time;durP1;ratioP1;P1;durP2;ratioP2;P2;SDS_P1;SDS_P2;PMS_P1;PMS_P2;Temp;Humidity;BMP_temperature;BMP_pressure;BME280_temperature;BME280_humidity;BME280_pressure;Samples;Min_cycle;Max_cycle;Signal;HPM_P1;HPM_P2
2023/07/25 00:01:24;;;;;;;3.63;1.70;;;17.40;99.90;;;;;;5034327;28;20086;-68
2023/07/25 00:03:49;;;;;;;5.95;1.70;;;17.40;99.90;;;;;;5032200;28;20404;-68
2023/07/25 00:06:16;;;;;;;3.00;2.10;;;17.40;99.90;;;;;;5034606;28;20036;-68
2023/07/25 00:08:42;;;;;;;4.13;2.00;;;17.50;99.90;;;;;;5034325;28;20022;-68
2023/07/25 00:11:13;;;;;;;2.85;1.83;;;17.50;99.90;;;;;;5034325;28;20108;-68
2023/07/25 00:13:38;;;;;;;;;;;17.60;99.90;;;;;;5034681;28;20025;-68
2023/07/25 00:16:04;;;;;;;5.32;2.28;;;17.60;99.90;;;;;;5034001;28;20324;-69
2023/07/25 00:18:30;;;;;;;4.45;2.15;;;17.50;99.90;;;;;;5034191;28;20425;-68
2023/07/25 00:20:55;;;;;;;3.38;1.92;;;17.50;99.90;;;;;;5034803;28;20048;-68
2023/07/25 00:23:21;;;;;;;3.78;2.13;;;17.60;99.90;;;;;;5034001;28;20029;-68
2023/07/25 00:25:50;;;;;;;2.78;1.65;;;17.50;99.90;;;;;;5034032;28;20025;-68
2023/07/25 00:28:15;;;;;;;3.03;1.92;;;17.50;99.90;;;;;;5034021;28;20049;-68
2023/07/25 00:30:41;;;;;;;3.83;2.00;;;17.40;99.90;;;;;;5033904;28;20470;-68
2023/07/25 00:33:07;;;;;;;2.95;1.60;;;17.40;99.90;;;;;;5033940;28;20040;-68
2023/07/25 00:35:32;;;;;;;4.05;2.00;;;17.40;99.90;;;;;;5032576;28;20029;-68
2023/07/25 00:37:58;;;;;;;6.90;1.70;;;17.40;99.90;;;;;;5033829;28;20026;-68
2023/07/25 00:40:24;;;;;;;3.75;1.80;;;17.30;99.90;;;;;;5033818;28;20025;-68
2023/07/25 00:42:56;;;;;;;3.10;2.28;;;17.20;99.90;;;;;;5033710;28;20041;-68
2023/07/25 00:45:22;;;;;;;3.83;1.75;;;17.20;99.90;;;;;;5033747;28;20097;-68
2023/07/25 00:47:49;;;;;;;2.72;1.55;;;17.20;99.90;;;;;;5033611;28;20032;-68
2023/07/25 00:50:14;;;;;;;4.60;1.70;;;17.20;99.90;;;;;;5033676;28;20034;-68
2023/07/25 00:52:40;;;;;;;2.50;1.48;;;17.20;99.90;;;;;;5033848;28;20490;-68
2023/07/25 00:55:07;;;;;;;3.53;1.77;;;17.20;99.90;;;;;;5033581;28;20036;-68
2023/07/25 00:57:32;;;;;;;2.67;1.73;;;17.20;99.90;;;;;;5032391;28;20528;-68
2023/07/25 00:59:58;;;;;;;2.92;1.80;;;17.20;99.90;;;;;;5033530;28;20029;-68
2023/07/25 01:02:24;;;;;;;2.83;1.80;;;17.20;99.90;;;;;;5033371;28;20048;-68
2023/07/25 01:04:50;;;;;;;2.67;1.58;;;17.20;99.90;;;;;;5032479;28;20465;-68
2023/07/25 01:07:16;;;;;;;2.60;1.52;;;17.10;99.90;;;;;;5033555;28;20056;-68
2023/07/25 01:09:44;;;;;;;2.78;1.55;;;17.10;99.90;;;;;;5033431;28;20104;-68
2023/07/25 01:12:11;;;;;;;2.92;1.60;;;17.10;99.90;;;;;;5032927;28;20060;-68
2023/07/25 01:14:38;;;;;;;2.85;1.60;;;17.10;99.90;;;;;;5033334;28;20037;-68
2023/07/25 01:17:16;;;;;;;4.88;1.80;;;17.10;99.90;;;;;;5031885;28;20048;-68
2023/07/25 01:19:44;;;;;;;2.58;1.73;;;17.10;99.90;;;;;;5033299;28;20032;-68
2023/07/25 01:22:11;;;;;;;3.67;1.55;;;17.20;99.90;;;;;;5033346;28;20025;-68
2023/07/25 01:24:42;;;;;;;3.45;2.17;;;17.20;99.90;;;;;;5033301;28;20381;-68
2023/07/25 01:27:07;;;;;;;;;;;17.20;99.90;;;;;;5033779;28;20045;-68
2023/07/25 01:29:33;;;;;;;2.72;1.33;;;17.30;99.90;;;;;;5035576;28;19932;-68
2023/07/25 01:31:59;;;;;;;2.35;1.45;;;17.30;99.90;;;;;;5037168;28;20040;-68
2023/07/25 01:34:24;;;;;;;3.72;1.60;;;17.40;99.90;;;;;;5037362;28;20116;-68
2023/07/25 01:36:50;;;;;;;2.97;1.65;;;17.40;99.90;;;;;;5037451;28;20060;-68
2023/07/25 01:39:16;;;;;;;3.00;1.83;;;17.40;99.90;;;;;;5037429;28;20057;-68
2023/07/25 01:41:43;;;;;;;3.17;1.90;;;17.40;99.90;;;;;;5037296;28;20036;-68
2023/07/25 01:44:09;;;;;;;2.80;1.73;;;17.40;99.90;;;;;;5037250;28;20029;-68
2023/07/25 01:46:35;;;;;;;2.95;1.90;;;17.40;99.90;;;;;;5037016;28;20040;-68
2023/07/25 01:49:01;;;;;;;2.53;1.70;;;17.30;99.90;;;;;;5037231;28;20026;-68
2023/07/25 01:51:27;;;;;;;4.15;1.80;;;17.30;99.90;;;;;;5036925;28;20079;-68
2023/07/25 01:53:53;;;;;;;2.60;1.70;;;17.30;99.90;;;;;;5036787;28;20029;-68
2023/07/25 01:56:20;;;;;;;2.35;1.58;;;17.30;99.90;;;;;;5036906;28;20036;-68
2023/07/25 01:58:46;;;;;;;2.40;1.83;;;17.20;99.90;;;;;;5036750;28;20156;-68
2023/07/25 02:01:11;;;;;;;4.82;1.95;;;17.20;99.90;;;;;;5036771;28;20044;-68
2023/07/25 02:52:13;;;;;;;4.20;2.50;;;16.30;99.90;;;;;;5110411;27;20375;-69
2023/07/25 02:54:39;;;;;;;3.40;2.08;;;16.10;99.90;;;;;;5110491;28;20054;-70
2023/07/25 02:57:05;;;;;;;5.47;2.40;;;16.10;99.90;;;;;;5111474;28;20020;-71
2023/07/25 02:59:31;;;;;;;4.00;2.40;;;16.10;99.90;;;;;;5111228;28;20024;-71
2023/07/25 03:01:56;;;;;;;3.35;1.70;;;16.10;99.90;;;;;;5110828;28;20027;-71
2023/07/25 03:04:22;;;;;;;3.08;1.60;;;16.20;99.90;;;;;;5111172;28;20106;-71
2023/07/25 03:06:48;;;;;;;5.78;2.40;;;16.10;99.90;;;;;;5111002;28;20059;-71
2023/07/25 03:09:13;;;;;;;3.00;2.00;;;16.10;99.90;;;;;;5110857;28;20038;-71
2023/07/25 03:11:39;;;;;;;3.47;1.98;;;16.10;99.90;;;;;;5110748;28;20024;-71
2023/07/25 03:14:05;;;;;;;3.92;1.90;;;16.10;99.90;;;;;;5110743;28;20028;-71
2023/07/25 03:16:30;;;;;;;3.25;2.22;;;16.20;99.90;;;;;;5110040;28;20039;-71
2023/07/25 03:18:56;;;;;;;4.50;2.10;;;16.20;99.90;;;;;;5111061;28;20111;-71
2023/07/25 03:21:22;;;;;;;3.20;1.90;;;16.20;99.90;;;;;;5110728;28;20024;-71
2023/07/25 03:23:47;;;;;;;3.13;2.03;;;16.20;99.90;;;;;;5110524;28;20031;-71
2023/07/25 03:26:13;;;;;;;4.10;2.20;;;16.20;99.90;;;;;;5110398;28;20031;-71
2023/07/25 03:28:38;;;;;;;5.20;1.98;;;16.10;99.90;;;;;;5110476;28;20189;-71
2023/07/25 03:31:05;;;;;;;3.55;1.98;;;16.20;99.90;;;;;;5110239;28;20027;-71
2023/07/25 03:33:31;;;;;;;3.53;2.05;;;16.20;99.90;;;;;;5108944;28;20028;-71
2023/07/25 03:35:56;;;;;;;3.90;2.30;;;16.30;99.90;;;;;;5110337;28;20027;-71
2023/07/25 03:38:22;;;;;;;4.50;2.08;;;16.20;99.90;;;;;;5109947;28;20473;-71
2023/07/25 03:40:48;;;;;;;4.85;2.47;;;16.20;99.90;;;;;;5109896;28;20039;-70
2023/07/25 03:43:13;;;;;;;4.07;2.20;;;16.10;99.90;;;;;;5110331;28;20036;-71
2023/07/25 03:45:39;;;;;;;4.53;2.60;;;16.00;99.90;;;;;;5108893;28;20024;-71
2023/07/25 03:48:05;;;;;;;4.40;2.30;;;16.00;99.90;;;;;;5110082;28;20024;-71
2023/07/25 03:50:31;;;;;;;4.60;2.47;;;16.00;99.90;;;;;;5109734;28;20085;-70
2023/07/25 03:53:00;;;;;;;5.97;2.30;;;15.80;99.90;;;;;;5097671;28;20449;-71
2023/07/25 03:55:25;;;;;;;4.05;2.28;;;15.70;99.90;;;;;;5096326;28;20393;-70
2023/07/25 03:57:51;;;;;;;5.85;2.70;;;15.60;99.90;;;;;;5096239;28;20028;-70
2023/07/25 04:00:17;;;;;;;5.18;2.58;;;15.50;99.90;;;;;;5094902;28;20035;-71
2023/07/25 04:02:43;;;;;;;6.50;3.35;;;15.40;99.90;;;;;;5096200;28;20199;-71
2023/07/25 04:05:09;;;;;;;8.88;4.85;;;15.40;99.90;;;;;;5094836;28;20060;-71
2023/07/25 04:07:35;;;;;;;7.10;4.05;;;15.30;99.90;;;;;;5096362;28;20032;-71
2023/07/25 04:10:02;;;;;;;5.63;2.75;;;15.30;99.90;;;;;;5096026;28;20032;-71
2023/07/25 04:12:27;;;;;;;4.72;2.78;;;15.20;99.90;;;;;;5095896;28;20024;-72
2023/07/25 04:14:53;;;;;;;7.72;2.83;;;15.10;99.90;;;;;;5094648;28;20421;-71
2023/07/25 04:17:18;;;;;;;7.40;2.65;;;15.00;99.90;;;;;;5094593;28;20024;-71
2023/07/25 04:19:44;;;;;;;6.00;2.53;;;15.00;99.90;;;;;;5095797;28;20024;-71
2023/07/25 04:22:10;;;;;;;5.53;2.90;;;14.90;99.90;;;;;;5093353;28;20059;-71
2023/07/25 04:24:36;;;;;;;6.32;3.80;;;14.90;99.90;;;;;;5095040;28;20032;-71
2023/07/25 04:27:01;;;;;;;6.25;3.10;;;14.90;99.90;;;;;;5095581;28;20078;-71
2023/07/25 04:29:27;;;;;;;7.47;3.30;;;14.90;99.90;;;;;;5095302;28;20028;-70
2023/07/25 04:31:53;;;;;;;12.15;3.15;;;14.90;99.90;;;;;;5095495;28;20130;-71
2023/07/25 04:34:18;;;;;;;7.32;3.28;;;14.90;99.90;;;;;;5094171;28;20397;-70
2023/07/25 04:36:44;;;;;;;5.80;2.33;;;14.80;99.90;;;;;;5095479;28;20085;-71
2023/07/25 04:39:09;;;;;;;3.90;2.30;;;14.80;99.90;;;;;;5095405;28;20032;-71
2023/07/25 04:41:35;;;;;;;4.20;2.28;;;15.00;99.90;;;;;;5094995;28;20032;-71
2023/07/25 04:44:01;;;;;;;4.85;2.97;;;15.00;99.90;;;;;;5095448;28;20040;-71
2023/07/25 04:46:28;;;;;;;5.68;2.55;;;15.00;99.90;;;;;;5095124;28;20042;-71
2023/07/25 04:48:54;;;;;;;5.78;2.47;;;15.00;99.90;;;;;;5094483;28;20056;-70
2023/07/25 04:51:19;;;;;;;4.35;2.40;;;14.90;99.90;;;;;;5093196;28;20397;-70
2023/07/25 04:53:45;;;;;;;5.07;2.30;;;14.80;99.90;;;;;;5092798;28;20044;-71
2023/07/25 04:56:11;;;;;;;5.32;2.30;;;14.80;99.90;;;;;;5092784;28;20055;-71
2023/07/25 04:58:41;;;;;;;3.53;1.88;;;14.80;99.90;;;;;;5092523;28;20181;-71
2023/07/25 05:01:07;;;;;;;5.05;2.38;;;14.80;99.90;;;;;;5073113;28;20024;-71
2023/07/25 05:03:33;;;;;;;4.63;2.20;;;14.80;99.90;;;;;;5073318;28;20025;-71
2023/07/25 05:05:59;;;;;;;3.72;2.00;;;14.80;99.90;;;;;;5078444;28;20032;-71
2023/07/25 05:08:25;;;;;;;4.00;2.30;;;14.80;99.90;;;;;;5091839;28;20467;-71
2023/07/25 05:10:52;;;;;;;3.35;2.00;;;14.90;99.90;;;;;;5092584;28;20028;-71
2023/07/25 05:13:18;;;;;;;6.20;1.90;;;14.90;99.90;;;;;;5089564;28;20099;-71
2023/07/25 05:15:44;;;;;;;4.28;1.98;;;14.90;99.90;;;;;;5093546;28;20035;-72
2023/07/25 05:18:09;;;;;;;4.20;2.50;;;15.00;99.90;;;;;;5092566;28;20020;-71
2023/07/25 05:20:35;;;;;;;3.00;1.85;;;15.00;99.90;;;;;;5094735;28;20020;-72
2023/07/25 05:23:01;;;;;;;4.25;2.15;;;15.00;99.90;;;;;;5075755;28;20051;-71
2023/07/25 05:25:27;;;;;;;3.10;1.88;;;15.10;99.90;;;;;;5094610;28;20053;-72
2023/07/25 05:27:53;;;;;;;3.97;2.13;;;15.10;99.90;;;;;;5093394;28;20113;-71
2023/07/25 05:30:18;;;;;;;3.92;2.20;;;15.10;99.90;;;;;;5094667;28;20036;-72
2023/07/25 05:32:44;;;;;;;5.35;2.80;;;15.20;99.90;;;;;;5094427;28;20063;-72
2023/07/25 05:35:10;;;;;;;4.28;2.15;;;15.10;99.90;;;;;;5092472;28;20409;-71
2023/07/25 05:37:37;;;;;;;4.50;2.35;;;15.10;99.90;;;;;;5092633;28;20424;-71
2023/07/25 05:40:03;;;;;;;4.30;2.67;;;15.10;99.90;;;;;;5077620;28;20038;-72
2023/07/25 05:42:30;;;;;;;5.28;2.60;;;15.10;99.90;;;;;;5082388;28;20473;-71
2023/07/25 05:44:56;;;;;;;5.13;2.30;;;15.00;99.90;;;;;;5093286;28;20032;-71
2023/07/25 05:47:21;;;;;;;4.07;2.13;;;15.00;99.90;;;;;;5090066;28;20560;-71
2023/07/25 05:49:47;;;;;;;4.18;2.33;;;15.00;99.90;;;;;;5092960;28;20111;-72
2023/07/25 05:52:13;;;;;;;3.97;2.70;;;14.90;99.90;;;;;;5094142;28;20016;-72
2023/07/25 05:54:39;;;;;;;5.78;2.97;;;14.90;99.90;;;;;;5074675;28;20082;-71
2023/07/25 05:57:05;;;;;;;7.25;3.40;;;14.90;99.90;;;;;;5075770;28;20024;-72
2023/07/25 05:59:31;;;;;;;4.38;2.70;;;14.80;99.90;;;;;;5091833;28;20047;-72
2023/07/25 06:01:57;;;;;;;4.95;2.95;;;14.80;99.90;;;;;;5089924;28;20059;-71
2023/07/25 06:04:23;;;;;;;4.30;2.35;;;14.80;99.90;;;;;;5090314;28;20024;-71
2023/07/25 06:06:48;;;;;;;5.03;2.60;;;14.80;99.90;;;;;;5090586;28;20485;-71
2023/07/25 06:09:14;;;;;;;3.80;2.28;;;14.80;99.90;;;;;;5091845;28;20052;-71
2023/07/25 06:11:40;;;;;;;5.03;2.42;;;14.80;99.90;;;;;;5090420;28;20643;-71
2023/07/25 06:14:05;;;;;;;4.25;2.55;;;14.80;99.90;;;;;;5091703;28;20027;-71
2023/07/25 06:16:31;;;;;;;3.50;2.17;;;14.90;99.90;;;;;;5091927;28;20020;-71
2023/07/25 06:18:57;;;;;;;5.25;2.85;;;14.90;99.90;;;;;;5093744;28;20020;-72
2023/07/25 06:21:22;;;;;;;4.10;2.53;;;15.00;99.90;;;;;;5093738;28;20035;-71
2023/07/25 06:23:48;;;;;;;4.78;3.10;;;15.10;99.90;;;;;;5093205;28;20031;-71
2023/07/25 06:26:14;;;;;;;7.97;3.33;;;15.20;99.90;;;;;;5076723;28;20036;-70
2023/07/25 06:28:40;;;;;;;5.10;3.22;;;15.30;99.90;;;;;;5073399;28;20576;-71
2023/07/25 06:31:06;;;;;;;5.68;3.30;;;15.30;99.90;;;;;;5073251;28;20040;-72
2023/07/25 06:33:31;;;;;;;6.65;4.05;;;15.30;99.90;;;;;;5072091;28;20059;-72
2023/07/25 06:35:57;;;;;;;8.25;3.67;;;15.30;99.90;;;;;;5073293;28;20474;-72
2023/07/25 06:38:23;;;;;;;6.28;3.25;;;15.30;99.90;;;;;;5073273;28;20104;-72
2023/07/25 06:40:48;;;;;;;4.47;2.58;;;15.30;99.90;;;;;;5071717;28;20070;-71
2023/07/25 06:43:14;;;;;;;5.47;3.22;;;15.40;99.90;;;;;;5071452;28;20033;-71
2023/07/25 06:45:40;;;;;;;6.53;2.55;;;15.40;99.90;;;;;;5071084;28;20039;-72
2023/07/25 06:48:05;;;;;;;3.75;2.40;;;15.40;99.90;;;;;;5071153;28;20657;-70
2023/07/25 06:50:33;;;;;;;3.72;2.17;;;15.40;99.90;;;;;;5070846;28;20428;-71
2023/07/25 06:52:59;;;;;;;3.00;2.00;;;15.50;99.90;;;;;;5072227;28;20021;-71
2023/07/25 06:55:25;;;;;;;3.33;1.75;;;15.50;99.90;;;;;;5073165;28;20386;-72
2023/07/25 06:57:51;;;;;;;2.60;1.65;;;15.60;99.90;;;;;;5073165;28;20111;-71
2023/07/25 07:00:18;;;;;;;3.25;2.08;;;15.60;99.90;;;;;;5073110;28;20032;-71
2023/07/25 07:02:44;;;;;;;3.78;2.00;;;15.70;99.90;;;;;;5073572;28;20056;-71
2023/07/25 07:05:10;;;;;;;5.40;2.20;;;15.80;99.90;;;;;;5073070;28;20444;-71
2023/07/25 07:07:40;;;;;;;4.00;2.20;;;15.90;99.90;;;;;;5072927;28;20025;-71
2023/07/25 07:10:06;;;;;;;4.22;2.40;;;16.00;99.90;;;;;;5072921;28;20375;-71
2023/07/25 07:12:32;;;;;;;5.28;2.20;;;16.00;99.90;;;;;;5073624;28;20021;-71
2023/07/25 07:14:57;;;;;;;4.03;2.30;;;16.10;99.90;;;;;;5072899;28;20031;-71
2023/07/25 07:17:23;;;;;;;5.72;2.75;;;16.10;99.90;;;;;;5072912;28;20024;-71
2023/07/25 07:19:48;;;;;;;3.28;2.17;;;16.10;99.90;;;;;;5071625;28;20103;-71
2023/07/25 07:22:14;;;;;;;4.18;2.28;;;16.10;99.90;;;;;;5072756;28;20027;-71
2023/07/25 07:24:41;;;;;;;3.42;2.40;;;16.10;99.90;;;;;;5072808;28;20420;-71
2023/07/25 07:27:06;;;;;;;4.20;2.42;;;16.20;99.90;;;;;;5072883;28;20032;-71
2023/07/25 07:29:32;;;;;;;4.50;2.17;;;16.20;99.90;;;;;;5076428;28;20021;-71
2023/07/25 07:31:59;;;;;;;3.28;2.22;;;16.20;99.90;;;;;;5076516;28;20095;-71
2023/07/25 07:34:25;;;;;;;3.17;2.17;;;16.30;99.90;;;;;;5076536;28;20051;-71
2023/07/25 07:36:51;;;;;;;5.05;2.42;;;16.30;99.90;;;;;;5076572;28;20522;-71
2023/07/25 07:39:17;;;;;;;4.43;2.20;;;16.40;99.90;;;;;;5076397;28;20111;-71
2023/07/25 07:41:42;;;;;;;3.90;2.22;;;16.30;99.90;;;;;;5074996;28;20032;-72
2023/07/25 07:44:08;;;;;;;4.65;2.55;;;16.30;99.90;;;;;;5075147;28;20116;-72
2023/07/25 07:46:34;;;;;;;3.83;2.42;;;16.30;99.90;;;;;;5076137;28;20107;-72
2023/07/25 07:49:00;;;;;;;3.50;2.05;;;16.40;99.90;;;;;;5076269;28;20028;-71
2023/07/25 07:51:27;;;;;;;3.72;2.20;;;16.40;99.90;;;;;;5075885;28;20398;-72
2023/07/25 07:53:52;;;;;;;3.70;2.00;;;16.40;99.90;;;;;;5074849;28;20059;-71
2023/07/25 07:56:18;;;;;;;3.08;2.15;;;16.50;99.90;;;;;;5076352;28;20029;-71
2023/07/25 07:58:45;;;;;;;3.75;2.30;;;16.50;99.90;;;;;;5076042;28;20020;-72
2023/07/25 08:01:19;;;;;;;4.00;2.35;;;16.50;99.90;;;;;;5075869;28;20047;-71
2023/07/25 08:03:45;;;;;;;4.60;2.20;;;16.50;99.90;;;;;;5074762;28;20115;-72
2023/07/25 08:06:11;;;;;;;3.45;1.73;;;16.50;99.90;;;;;;5076312;28;20029;-72
2023/07/25 08:08:38;;;;;;;2.70;1.80;;;16.50;99.90;;;;;;5075928;28;20141;-71
2023/07/25 08:11:03;;;;;;;3.55;2.30;;;16.50;99.90;;;;;;5075884;28;20425;-71
2023/07/25 08:13:29;;;;;;;3.22;1.90;;;16.60;99.90;;;;;;5074564;28;20020;-71
2023/07/25 08:15:54;;;;;;;4.95;1.98;;;16.70;99.90;;;;;;5074676;28;20029;-71
2023/07/25 08:18:20;;;;;;;3.50;1.90;;;16.70;99.90;;;;;;5075754;28;20020;-71
2023/07/25 08:20:46;;;;;;;3.35;1.75;;;16.70;99.90;;;;;;5074361;28;20029;-71
2023/07/25 08:23:12;;;;;;;3.35;1.80;;;16.70;99.90;;;;;;5075887;28;20082;-71
2023/07/25 08:25:39;;;;;;;3.30;1.90;;;16.80;99.90;;;;;;5075578;28;20453;-71
2023/07/25 08:28:05;;;;;;;3.10;1.83;;;16.90;99.90;;;;;;5075524;28;20436;-71
2023/07/25 08:30:31;;;;;;;2.95;2.03;;;17.00;99.90;;;;;;5075295;28;20029;-71
2023/07/25 08:32:57;;;;;;;3.03;1.80;;;17.10;99.90;;;;;;5075414;28;20016;-71
2023/07/25 08:35:23;;;;;;;3.38;1.77;;;17.30;99.90;;;;;;5075484;28;20478;-71
2023/07/25 08:37:49;;;;;;;3.55;1.65;;;17.40;99.90;;;;;;5075302;28;20471;-71
2023/07/25 08:40:15;;;;;;;4.82;1.92;;;17.50;99.90;;;;;;5075219;28;20543;-71
2023/07/25 08:42:45;;;;;;;2.97;1.70;;;17.60;99.90;;;;;;5075203;28;20028;-71
2023/07/25 08:45:11;;;;;;;2.75;1.70;;;17.70;99.90;;;;;;5075214;28;20020;-71
2023/07/25 08:47:40;;;;;;;3.90;2.05;;;17.80;99.90;;;;;;5075139;28;20400;-71
2023/07/25 08:50:14;;;;;;;2.70;1.70;;;17.90;99.90;;;;;;5074928;28;20429;-72
2023/07/25 08:52:41;;;;;;;3.28;2.00;;;17.90;99.90;;;;;;5075045;28;20066;-71
2023/07/25 08:55:07;;;;;;;3.75;1.60;;;18.00;99.90;;;;;;5075597;28;20051;-71
2023/07/25 08:57:33;;;;;;;2.60;1.80;;;18.00;99.90;;;;;;5075017;28;20058;-71
2023/07/25 08:59:59;;;;;;;3.05;1.73;;;18.10;99.90;;;;;;5073621;23;20083;-71
2023/07/25 09:02:26;;;;;;;4.80;1.77;;;18.10;99.90;;;;;;5035215;28;20398;-71
2023/07/25 09:04:52;;;;;;;3.20;1.80;;;18.20;99.90;;;;;;5035367;28;20391;-71
2023/07/25 09:07:19;;;;;;;3.60;2.10;;;18.20;99.90;;;;;;5034789;28;20104;-71
2023/07/25 09:09:44;;;;;;;3.00;1.80;;;18.20;99.90;;;;;;5034667;28;20033;-72
2023/07/25 09:12:10;;;;;;;5.25;1.83;;;18.10;99.90;;;;;;5034708;28;20025;-72
2023/07/25 09:14:36;;;;;;;3.38;1.90;;;18.00;99.90;;;;;;5033301;28;20108;-72
2023/07/25 09:17:06;;;;;;;2.63;1.63;;;18.00;99.90;;;;;;5033365;28;20037;-72
2023/07/25 09:19:33;;;;;;;3.00;1.70;;;18.00;99.90;;;;;;5034505;28;20056;-72
2023/07/25 09:21:58;;;;;;;3.03;1.85;;;17.90;99.90;;;;;;5034514;28;20025;-72
2023/07/25 09:24:44;;;;;;;3.28;1.63;;;17.90;99.90;;;;;;5034715;28;20028;-72
2023/07/25 09:27:16;;;;;;;3.20;1.80;;;17.90;99.90;;;;;;5034182;28;20073;-72
2023/07/25 09:29:42;;;;;;;3.05;1.75;;;17.90;99.90;;;;;;5034075;28;20021;-72
2023/07/25 09:32:19;;;;;;;3.63;1.85;;;18.00;99.90;;;;;;5034565;28;20032;-71
2023/07/25 09:34:46;;;;;;;2.75;1.88;;;18.00;99.90;;;;;;5034550;28;20550;-71
2023/07/25 09:37:16;;;;;;;3.17;1.70;;;17.90;99.90;;;;;;5034497;28;20025;-71
2023/07/25 09:39:42;;;;;;;3.15;1.60;;;17.90;99.90;;;;;;5034108;28;20030;-71
2023/07/25 09:42:08;;;;;;;3.15;1.77;;;17.80;99.90;;;;;;5034099;28;20044;-72
2023/07/25 09:44:33;;;;;;;5.00;1.92;;;17.80;99.90;;;;;;5033823;28;20104;-71
2023/07/25 09:46:59;;;;;;;3.00;1.70;;;17.70;99.90;;;;;;5034043;28;20034;-71
2023/07/25 09:49:25;;;;;;;2.70;1.50;;;17.70;99.90;;;;;;5033456;28;20021;-71
2023/07/25 09:52:03;;;;;;;3.15;2.00;;;17.60;99.90;;;;;;5033853;28;20586;-71
2023/07/25 09:54:29;;;;;;;3.63;1.60;;;17.50;99.90;;;;;;5034532;28;20112;-71
2023/07/25 09:56:55;;;;;;;5.25;2.15;;;17.30;99.90;;;;;;5034441;28;20475;-71
2023/07/25 09:59:22;;;;;;;2.88;1.80;;;17.20;99.90;;;;;;5033347;28;20030;-71
2023/07/25 10:01:49;;;;;;;5.57;1.60;;;17.00;99.90;;;;;;5033895;28;20375;-71
2023/07/25 10:04:16;;;;;;;2.42;1.77;;;16.90;99.90;;;;;;5033736;28;20025;-71
2023/07/25 10:06:42;;;;;;;3.75;1.83;;;16.90;99.90;;;;;;5033679;28;20033;-71
2023/07/25 10:09:09;;;;;;;3.40;1.92;;;16.80;99.90;;;;;;5033584;28;20036;-72
2023/07/25 10:11:36;;;;;;;2.75;1.80;;;16.70;99.90;;;;;;5033561;28;20556;-71
2023/07/25 10:14:02;;;;;;;3.13;1.85;;;16.70;99.90;;;;;;5033570;28;20024;-71
2023/07/25 10:16:28;;;;;;;3.08;1.80;;;16.70;99.90;;;;;;5033343;28;20022;-71
2023/07/25 10:18:57;;;;;;;2.97;1.77;;;16.60;99.90;;;;;;5033377;28;20483;-72
2023/07/25 10:21:27;;;;;;;4.07;2.35;;;16.50;99.90;;;;;;5033430;28;20030;-71
2023/07/25 10:24:00;;;;;;;2.88;1.75;;;16.50;99.90;;;;;;5033799;28;20021;-71
2023/07/25 10:26:26;;;;;;;3.28;1.58;;;16.50;99.90;;;;;;5033741;28;20057;-71
2023/07/25 10:28:52;;;;;;;2.70;1.63;;;16.50;99.90;;;;;;5033340;28;20112;-72
2023/07/25 10:31:33;;;;;;;4.53;1.88;;;16.40;99.90;;;;;;5031761;28;20125;-71
2023/07/25 10:33:59;;;;;;;2.88;1.70;;;16.30;99.90;;;;;;5033383;28;20025;-72
2023/07/25 10:36:26;;;;;;;2.55;1.70;;;16.30;99.90;;;;;;5033294;28;20064;-72
2023/07/25 10:38:58;;;;;;;2.42;1.73;;;16.30;99.90;;;;;;5033182;28;20029;-72
2023/07/25 10:41:23;;;;;;;2.70;1.70;;;16.30;99.90;;;;;;5033275;28;20030;-72
2023/07/25 10:43:51;;;;;;;2.75;1.70;;;16.20;99.90;;;;;;5033295;28;20501;-72
2023/07/25 10:46:21;;;;;;;3.35;1.85;;;16.30;99.90;;;;;;5032966;28;20035;-72
2023/07/25 10:48:57;;;;;;;4.47;1.60;;;16.30;99.90;;;;;;5031938;28;20021;-72
2023/07/25 10:51:43;;;;;;;2.65;1.70;;;16.40;99.90;;;;;;5033844;28;20052;-72
2023/07/25 10:54:12;;;;;;;3.83;1.60;;;16.40;99.90;;;;;;5032404;28;20063;-72
2023/07/25 10:56:38;;;;;;;4.40;2.00;;;16.50;99.90;;;;;;5033348;28;20375;-71
2023/07/25 10:59:05;;;;;;;2.78;1.70;;;16.50;99.90;;;;;;5033277;28;20046;-72
2023/07/25 11:01:46;;;;;;;2.97;1.60;;;16.60;99.90;;;;;;5033621;28;20029;-72
2023/07/25 11:04:21;;;;;;;2.88;1.80;;;16.50;99.90;;;;;;5037329;28;20117;-72
2023/07/25 11:06:48;;;;;;;3.88;1.63;;;16.50;99.90;;;;;;5037162;28;20025;-71
2023/07/25 11:09:14;;;;;;;3.25;1.67;;;16.40;99.90;;;;;;5036982;28;20029;-71
2023/07/25 11:11:47;;;;;;;2.80;1.58;;;16.40;99.90;;;;;;5036929;28;20549;-71
2023/07/25 11:14:15;;;;;;;2.95;1.80;;;16.30;99.90;;;;;;5036740;28;20028;-71
2023/07/25 11:16:42;;;;;;;3.05;1.60;;;16.30;99.90;;;;;;5036735;28;20087;-71
2023/07/25 11:19:09;;;;;;;4.50;1.77;;;16.20;99.90;;;;;;5036747;28;20437;-71
2023/07/25 11:21:43;;;;;;;4.20;1.88;;;16.10;99.90;;;;;;5036540;28;20049;-71
2023/07/25 11:24:11;;;;;;;2.92;1.83;;;16.00;99.90;;;;;;5036905;28;20495;-71
2023/07/25 11:26:37;;;;;;;4.63;1.80;;;15.90;99.90;;;;;;5035099;28;20117;-72
2023/07/25 11:29:10;;;;;;;3.55;1.80;;;15.80;99.90;;;;;;5036204;28;20108;-71
2023/07/25 11:31:41;;;;;;;3.42;2.00;;;15.70;99.90;;;;;;5034328;28;20052;-72
2023/07/25 11:34:14;;;;;;;2.67;1.77;;;15.60;99.90;;;;;;5036088;28;20022;-71
2023/07/25 11:36:40;;;;;;;5.45;1.92;;;15.50;99.90;;;;;;5036757;28;20030;-71
2023/07/25 11:39:08;;;;;;;2.83;1.90;;;15.40;99.90;;;;;;5036339;28;20383;-71
2023/07/25 11:41:37;;;;;;;2.67;1.70;;;15.40;99.90;;;;;;5035773;28;20368;-71
2023/07/25 11:44:15;;;;;;;5.03;2.05;;;15.30;99.90;;;;;;5036170;28;20084;-71
2023/07/25 11:46:44;;;;;;;3.70;2.25;;;15.40;99.90;;;;;;5036164;28;20056;-70
2023/07/25 11:49:13;;;;;;;3.17;1.60;;;15.30;99.90;;;;;;5037288;28;20017;-71
2023/07/25 11:51:39;;;;;;;3.45;1.90;;;15.40;99.90;;;;;;5036271;28;20391;-71
2023/07/25 11:54:06;;;;;;;4.85;1.90;;;15.40;99.90;;;;;;5036330;28;20378;-71
2023/07/25 11:56:33;;;;;;;4.22;1.80;;;15.50;99.90;;;;;;5035962;28;20026;-71
2023/07/25 11:59:00;;;;;;;3.33;1.70;;;15.60;99.90;;;;;;5036110;28;20033;-72
2023/07/25 12:01:31;;;;;;;4.00;1.80;;;15.60;99.90;;;;;;5035465;28;20079;-72
2023/07/25 12:04:00;;;;;;;3.30;1.88;;;15.70;99.90;;;;;;5034647;28;20037;-72
2023/07/25 12:06:30;;;;;;;3.88;1.90;;;15.70;99.90;;;;;;5035663;28;20032;-72
2023/07/25 12:08:57;;;;;;;3.25;1.80;;;15.70;99.90;;;;;;5034491;28;20040;-73
2023/07/25 12:11:22;;;;;;;3.47;1.95;;;15.80;99.90;;;;;;5035677;28;20029;-72
2023/07/25 12:13:50;;;;;;;4.18;1.90;;;15.90;99.90;;;;;;5035510;28;20087;-72
2023/07/25 12:16:30;;;;;;;3.35;1.73;;;16.00;99.90;;;;;;5034212;28;20079;-72
2023/07/25 12:19:00;;;;;;;3.25;1.80;;;16.10;99.90;;;;;;5026069;28;20030;-73
2023/07/25 12:21:31;;;;;;;3.25;1.75;;;16.30;99.90;;;;;;5021135;28;20037;-73
2023/07/25 12:24:03;;;;;;;2.83;1.70;;;16.50;99.90;;;;;;5027993;28;20026;-73
2023/07/25 12:26:38;;;;;;;3.10;1.77;;;16.70;99.90;;;;;;5020394;28;20062;-73
2023/07/25 12:29:15;;;;;;;2.65;1.73;;;16.90;99.90;;;;;;5024795;28;20044;-73
2023/07/25 12:31:41;;;;;;;2.95;1.63;;;17.10;99.90;;;;;;5031207;28;20041;-73
2023/07/25 12:34:07;;;;;;;2.95;1.60;;;17.30;99.90;;;;;;5025931;28;20022;-73
2023/07/25 12:36:33;;;;;;;3.20;1.67;;;17.50;99.90;;;;;;5017644;28;20022;-73
2023/07/25 12:38:58;;;;;;;2.42;1.50;;;17.70;99.90;;;;;;5033238;28;20030;-72
2023/07/25 12:41:24;;;;;;;2.33;1.23;;;18.00;99.90;;;;;;5035293;28;20033;-72
2023/07/25 12:43:50;;;;;;;3.35;1.85;;;18.30;99.90;;;;;;5035213;28;20035;-73
2023/07/25 12:46:16;;;;;;;3.08;1.73;;;18.60;99.90;;;;;;5034983;28;20060;-73
2023/07/25 12:48:41;;;;;;;3.20;1.60;;;18.90;99.90;;;;;;5035408;28;20084;-73
2023/07/25 12:51:07;;;;;;;2.72;1.50;;;19.20;99.90;;;;;;5035257;28;20030;-73
2023/07/25 12:53:33;;;;;;;3.40;1.40;;;19.50;99.90;;;;;;5035355;28;20025;-73
2023/07/25 12:55:59;;;;;;;3.50;2.08;;;19.60;99.90;;;;;;5035160;28;20029;-73
2023/07/25 12:58:27;;;;;;;3.10;2.03;;;19.70;99.90;;;;;;5033597;28;20434;-73
2023/07/25 13:00:53;;;;;;;4.03;1.60;;;19.70;99.90;;;;;;5034264;28;20038;-73
2023/07/25 13:03:26;;;;;;;3.92;2.20;;;19.80;99.90;;;;;;5030195;28;20029;-74
2023/07/25 13:05:52;;;;;;;3.97;2.20;;;19.80;99.90;;;;;;5020734;28;20503;-73
2023/07/25 13:08:18;;;;;;;4.15;1.95;;;19.70;99.90;;;;;;5022996;28;20029;-73
2023/07/25 13:10:44;;;;;;;2.70;1.70;;;19.70;99.90;;;;;;5014800;28;20030;-73
2023/07/25 13:13:09;;;;;;;3.72;2.08;;;19.70;99.90;;;;;;5014766;28;20144;-73
2023/07/25 13:15:35;;;;;;;4.15;2.17;;;19.60;99.90;;;;;;5025748;28;20048;-73
2023/07/25 13:18:01;;;;;;;4.55;2.22;;;19.50;99.90;;;;;;5032940;28;20030;-73
2023/07/25 13:20:26;;;;;;;2.90;1.90;;;19.50;99.90;;;;;;5021339;28;20037;-73
2023/07/25 13:22:53;;;;;;;4.50;1.90;;;19.50;99.90;;;;;;5014402;28;20038;-73
2023/07/25 13:25:19;;;;;;;2.70;1.63;;;19.50;99.90;;;;;;5019785;28;20080;-72
2023/07/25 13:27:45;;;;;;;2.88;1.73;;;19.50;99.90;;;;;;5033721;28;20448;-74
2023/07/25 13:30:11;;;;;;;4.55;1.67;;;19.40;99.90;;;;;;5030974;28;20120;-75
2023/07/25 13:32:38;;;;;;;3.33;1.98;;;19.40;99.90;;;;;;5012737;28;20033;-75
2023/07/25 13:35:04;;;;;;;3.35;1.70;;;19.30;99.90;;;;;;5014086;28;20419;-74